sensor_id;sensor_type;location;lat;lon;timestamp;P1;durP1;ratioP1;P2;durP2;ratioP2
27199;SDS011;14714;48.106;11.546;2024-02-16T00:01:02;5.93;;;3.70;;
27199;SDS011;14714;48.106;11.546;2024-02-16T00:03:30;6.55;;;3.60;;
27199;SDS011;14714;48.106;11.546;2024-02-16T00:05:58;5.05;;;2.90;;
27199;SDS011;14714;48.106;11.546;2024-02-16T00:08:25;5.88;;;3.22;;
27199;SDS011;14714;48.106;11.546;2024-02-16T00:10:52;4.78;;;3.20;;
27199;SDS011;14714;48.106;11.546;2024-02-16T00:13:19;5.72;;;3.20;;
27199;SDS011;14714;48.106;11.546;2024-02-16T00:15:46;4.25;;;2.92;;
27199;SDS011;14714;48.106;11.546;2024-02-16T00:18:13;4.38;;;3.10;;
27199;SDS011;14714;48.106;11.546;2024-02-16T00:20:40;4.50;;;2.85;;
27199;SDS011;14714;48.106;11.546;2024-02-16T00:23:06;4.78;;;3.28;;
27199;SDS011;14714;48.106;11.546;2024-02-16T00:25:33;5.63;;;2.80;;
27199;SDS011;14714;48.106;11.546;2024-02-16T00:28:00;6.57;;;3.03;;
27199;SDS011;14714;48.106;11.546;2024-02-16T00:30:27;4.88;;;3.10;;
27199;SDS011;14714;48.106;11.546;2024-02-16T00:32:54;4.45;;;2.70;;
27199;SDS011;14714;48.106;11.546;2024-02-16T00:35:21;5.28;;;2.85;;
27199;SDS011;14714;48.106;11.546;2024-02-16T00:37:48;4.25;;;2.97;;
27199;SDS011;14714;48.106;11.546;2024-02-16T00:40:15;4.40;;;2.70;;
27199;SDS011;14714;48.106;11.546;2024-02-16T00:42:42;6.30;;;3.05;;
27199;SDS011;14714;48.106;11.546;2024-02-16T00:45:12;5.93;;;3.38;;
27199;SDS011;14714;48.106;11.546;2024-02-16T00:47:39;4.35;;;3.00;;
27199;SDS011;14714;48.106;11.546;2024-02-16T00:50:06;5.93;;;2.90;;
27199;SDS011;14714;48.106;11.546;2024-02-16T00:52:35;3.80;;;3.00;;
27199;SDS011;14714;48.106;11.546;2024-02-16T00:55:03;3.97;;;2.80;;
27199;SDS011;14714;48.106;11.546;2024-02-16T00:57:30;7.65;;;3.50;;
27199;SDS011;14714;48.106;11.546;2024-02-16T00:59:59;6.65;;;2.75;;
27199;SDS011;14714;48.106;11.546;2024-02-16T01:02:26;7.22;;;3.40;;
27199;SDS011;14714;48.106;11.546;2024-02-16T01:04:55;4.40;;;2.55;;
27199;SDS011;14714;48.106;11.546;2024-02-16T01:07:28;8.57;;;3.45;;
27199;SDS011;14714;48.106;11.546;2024-02-16T01:09:56;6.13;;;3.30;;
27199;SDS011;14714;48.106;11.546;2024-02-16T01:12:23;5.93;;;2.95;;
27199;SDS011;14714;48.106;11.546;2024-02-16T01:14:50;4.72;;;2.97;;
27199;SDS011;14714;48.106;11.546;2024-02-16T01:17:17;5.63;;;3.40;;
27199;SDS011;14714;48.106;11.546;2024-02-16T01:19:43;6.00;;;4.18;;
27199;SDS011;14714;48.106;11.546;2024-02-16T01:22:10;8.05;;;3.63;;
27199;SDS011;14714;48.106;11.546;2024-02-16T01:24:37;7.30;;;4.05;;
27199;SDS011;14714;48.106;11.546;2024-02-16T01:27:04;8.40;;;4.20;;
27199;SDS011;14714;48.106;11.546;2024-02-16T01:29:31;5.68;;;3.50;;
27199;SDS011;14714;48.106;11.546;2024-02-16T01:31:58;5.03;;;3.38;;
27199;SDS011;14714;48.106;11.546;2024-02-16T01:34:25;5.40;;;3.22;;
27199;SDS011;14714;48.106;11.546;2024-02-16T01:36:52;4.70;;;3.10;;
27199;SDS011;14714;48.106;11.546;2024-02-16T01:39:19;5.55;;;3.40;;
27199;SDS011;14714;48.106;11.546;2024-02-16T01:41:46;6.75;;;3.38;;
27199;SDS011;14714;48.106;11.546;2024-02-16T01:44:13;5.18;;;2.90;;
27199;SDS011;14714;48.106;11.546;2024-02-16T01:46:43;5.03;;;3.13;;
27199;SDS011;14714;48.106;11.546;2024-02-16T01:49:10;5.68;;;3.55;;
27199;SDS011;14714;48.106;11.546;2024-02-16T01:51:38;4.88;;;3.45;;
27199;SDS011;14714;48.106;11.546;2024-02-16T01:54:04;4.32;;;2.85;;
27199;SDS011;14714;48.106;11.546;2024-02-16T01:56:31;5.07;;;3.00;;
27199;SDS011;14714;48.106;11.546;2024-02-16T01:58:59;5.82;;;3.30;;
27199;SDS011;14714;48.106;11.546;2024-02-16T02:01:26;5.20;;;3.20;;
27199;SDS011;14714;48.106;11.546;2024-02-16T02:03:53;5.18;;;3.17;;
27199;SDS011;14714;48.106;11.546;2024-02-16T02:06:20;5.28;;;3.00;;
27199;SDS011;14714;48.106;11.546;2024-02-16T02:08:47;6.22;;;3.45;;
27199;SDS011;14714;48.106;11.546;2024-02-16T02:11:14;6.05;;;3.80;;
27199;SDS011;14714;48.106;11.546;2024-02-16T02:13:41;7.75;;;3.58;;
27199;SDS011;14714;48.106;11.546;2024-02-16T02:16:09;5.50;;;3.53;;
27199;SDS011;14714;48.106;11.546;2024-02-16T02:18:36;5.13;;;3.30;;
27199;SDS011;14714;48.106;11.546;2024-02-16T02:21:03;6.25;;;3.80;;
27199;SDS011;14714;48.106;11.546;2024-02-16T02:23:31;6.60;;;3.90;;
27199;SDS011;14714;48.106;11.546;2024-02-16T02:25:58;4.70;;;3.28;;
27199;SDS011;14714;48.106;11.546;2024-02-16T02:28:24;4.47;;;3.10;;
27199;SDS011;14714;48.106;11.546;2024-02-16T02:30:51;4.63;;;3.17;;
27199;SDS011;14714;48.106;11.546;2024-02-16T02:33:19;6.30;;;3.97;;
27199;SDS011;14714;48.106;11.546;2024-02-16T02:35:47;6.53;;;3.38;;
27199;SDS011;14714;48.106;11.546;2024-02-16T02:38:14;5.97;;;3.70;;
27199;SDS011;14714;48.106;11.546;2024-02-16T02:40:40;4.25;;;3.10;;
27199;SDS011;14714;48.106;11.546;2024-02-16T02:43:07;4.70;;;3.22;;
27199;SDS011;14714;48.106;11.546;2024-02-16T02:45:35;4.82;;;3.08;;
27199;SDS011;14714;48.106;11.546;2024-02-16T02:48:01;6.78;;;3.60;;
27199;SDS011;14714;48.106;11.546;2024-02-16T02:50:29;5.43;;;3.50;;
27199;SDS011;14714;48.106;11.546;2024-02-16T02:52:57;5.03;;;3.28;;
27199;SDS011;14714;48.106;11.546;2024-02-16T02:55:24;5.18;;;3.28;;
27199;SDS011;14714;48.106;11.546;2024-02-16T02:57:50;6.25;;;3.50;;
27199;SDS011;14714;48.106;11.546;2024-02-16T03:00:17;5.80;;;3.13;;
27199;SDS011;14714;48.106;11.546;2024-02-16T03:02:45;6.55;;;3.58;;
27199;SDS011;14714;48.106;11.546;2024-02-16T03:05:13;4.38;;;3.10;;
27199;SDS011;14714;48.106;11.546;2024-02-16T03:07:40;4.95;;;3.30;;
27199;SDS011;14714;48.106;11.546;2024-02-16T03:10:07;5.65;;;3.50;;
27199;SDS011;14714;48.106;11.546;2024-02-16T03:15:04;4.40;;;3.10;;
27199;SDS011;14714;48.106;11.546;2024-02-16T03:17:31;5.82;;;3.28;;
27199;SDS011;14714;48.106;11.546;2024-02-16T03:19:58;4.53;;;3.05;;
27199;SDS011;14714;48.106;11.546;2024-02-16T03:22:25;4.30;;;3.20;;
27199;SDS011;14714;48.106;11.546;2024-02-16T03:24:52;5.15;;;3.00;;
27199;SDS011;14714;48.106;11.546;2024-02-16T03:27:18;4.65;;;3.13;;
27199;SDS011;14714;48.106;11.546;2024-02-16T03:29:46;4.32;;;3.20;;
27199;SDS011;14714;48.106;11.546;2024-02-16T03:32:13;3.80;;;3.08;;
27199;SDS011;14714;48.106;11.546;2024-02-16T03:34:40;4.47;;;3.05;;
27199;SDS011;14714;48.106;11.546;2024-02-16T03:37:07;5.13;;;2.97;;
27199;SDS011;14714;48.106;11.546;2024-02-16T03:39:35;4.32;;;2.80;;
27199;SDS011;14714;48.106;11.546;2024-02-16T03:42:03;4.63;;;3.00;;
27199;SDS011;14714;48.106;11.546;2024-02-16T03:44:30;4.47;;;2.65;;
27199;SDS011;14714;48.106;11.546;2024-02-16T03:46:57;4.55;;;3.03;;
27199;SDS011;14714;48.106;11.546;2024-02-16T03:49:25;4.38;;;3.13;;
27199;SDS011;14714;48.106;11.546;2024-02-16T03:51:54;3.83;;;2.70;;
27199;SDS011;14714;48.106;11.546;2024-02-16T03:54:21;4.45;;;3.10;;
27199;SDS011;14714;48.106;11.546;2024-02-16T03:56:48;7.53;;;3.05;;
27199;SDS011;14714;48.106;11.546;2024-02-16T04:01:45;4.22;;;2.80;;
27199;SDS011;14714;48.106;11.546;2024-02-16T04:04:12;5.10;;;3.00;;
27199;SDS011;14714;48.106;11.546;2024-02-16T04:06:39;4.00;;;2.72;;
27199;SDS011;14714;48.106;11.546;2024-02-16T04:09:06;6.28;;;2.97;;
27199;SDS011;14714;48.106;11.546;2024-02-16T04:11:33;6.10;;;3.00;;
27199;SDS011;14714;48.106;11.546;2024-02-16T04:14:01;4.82;;;2.70;;
27199;SDS011;14714;48.106;11.546;2024-02-16T04:16:28;4.93;;;3.00;;
27199;SDS011;14714;48.106;11.546;2024-02-16T04:18:55;4.00;;;2.83;;
27199;SDS011;14714;48.106;11.546;2024-02-16T04:21:22;3.85;;;2.67;;
27199;SDS011;14714;48.106;11.546;2024-02-16T04:23:49;4.40;;;3.10;;
27199;SDS011;14714;48.106;11.546;2024-02-16T04:26:16;4.10;;;2.70;;
27199;SDS011;14714;48.106;11.546;2024-02-16T04:28:43;3.28;;;2.72;;
27199;SDS011;14714;48.106;11.546;2024-02-16T04:31:10;4.10;;;2.83;;
27199;SDS011;14714;48.106;11.546;2024-02-16T04:33:37;4.78;;;3.05;;
27199;SDS011;14714;48.106;11.546;2024-02-16T04:36:05;5.93;;;3.00;;
27199;SDS011;14714;48.106;11.546;2024-02-16T04:38:33;3.90;;;2.58;;
27199;SDS011;14714;48.106;11.546;2024-02-16T04:41:00;4.18;;;2.70;;
27199;SDS011;14714;48.106;11.546;2024-02-16T04:43:27;4.93;;;2.92;;
27199;SDS011;14714;48.106;11.546;2024-02-16T04:45:54;5.72;;;3.05;;
27199;SDS011;14714;48.106;11.546;2024-02-16T04:48:20;4.80;;;2.97;;
27199;SDS011;14714;48.106;11.546;2024-02-16T04:50:48;5.07;;;2.80;;
27199;SDS011;14714;48.106;11.546;2024-02-16T04:53:15;4.13;;;2.70;;
27199;SDS011;14714;48.106;11.546;2024-02-16T04:55:41;4.57;;;2.70;;
27199;SDS011;14714;48.106;11.546;2024-02-16T04:58:08;4.13;;;2.80;;
27199;SDS011;14714;48.106;11.546;2024-02-16T05:00:39;5.55;;;2.95;;
27199;SDS011;14714;48.106;11.546;2024-02-16T05:05:33;4.85;;;2.72;;
27199;SDS011;14714;48.106;11.546;2024-02-16T05:08:00;3.55;;;2.60;;
27199;SDS011;14714;48.106;11.546;2024-02-16T05:10:27;3.15;;;2.42;;
27199;SDS011;14714;48.106;11.546;2024-02-16T05:12:54;4.32;;;2.88;;
27199;SDS011;14714;48.106;11.546;2024-02-16T05:15:21;4.07;;;2.67;;
27199;SDS011;14714;48.106;11.546;2024-02-16T05:17:48;3.80;;;2.65;;
27199;SDS011;14714;48.106;11.546;2024-02-16T05:20:16;4.38;;;2.78;;
27199;SDS011;14714;48.106;11.546;2024-02-16T05:22:46;3.67;;;2.50;;
27199;SDS011;14714;48.106;11.546;2024-02-16T05:25:13;6.10;;;2.70;;
27199;SDS011;14714;48.106;11.546;2024-02-16T05:27:40;4.18;;;2.60;;
27199;SDS011;14714;48.106;11.546;2024-02-16T05:30:11;4.28;;;2.70;;
27199;SDS011;14714;48.106;11.546;2024-02-16T05:32:39;3.72;;;2.70;;
27199;SDS011;14714;48.106;11.546;2024-02-16T05:35:06;3.47;;;2.50;;
27199;SDS011;14714;48.106;11.546;2024-02-16T05:37:46;4.30;;;2.78;;
27199;SDS011;14714;48.106;11.546;2024-02-16T05:40:22;4.07;;;2.70;;
27199;SDS011;14714;48.106;11.546;2024-02-16T05:42:54;4.68;;;2.60;;
27199;SDS011;14714;48.106;11.546;2024-02-16T05:45:24;5.00;;;2.72;;
27199;SDS011;14714;48.106;11.546;2024-02-16T05:47:54;3.65;;;2.63;;
27199;SDS011;14714;48.106;11.546;2024-02-16T05:50:21;2.95;;;2.20;;
27199;SDS011;14714;48.106;11.546;2024-02-16T05:52:49;4.03;;;2.40;;
27199;SDS011;14714;48.106;11.546;2024-02-16T05:55:17;6.03;;;2.70;;
27199;SDS011;14714;48.106;11.546;2024-02-16T05:57:47;4.05;;;2.90;;
27199;SDS011;14714;48.106;11.546;2024-02-16T06:00:14;4.10;;;2.67;;
27199;SDS011;14714;48.106;11.546;2024-02-16T06:02:42;4.63;;;2.53;;
27199;SDS011;14714;48.106;11.546;2024-02-16T06:05:09;4.32;;;2.47;;
27199;SDS011;14714;48.106;11.546;2024-02-16T06:07:37;3.83;;;2.40;;
27199;SDS011;14714;48.106;11.546;2024-02-16T06:10:07;4.28;;;2.50;;
27199;SDS011;14714;48.106;11.546;2024-02-16T06:12:37;3.58;;;2.33;;
27199;SDS011;14714;48.106;11.546;2024-02-16T06:15:05;5.35;;;2.60;;
27199;SDS011;14714;48.106;11.546;2024-02-16T06:17:32;5.50;;;2.50;;
27199;SDS011;14714;48.106;11.546;2024-02-16T06:19:59;10.57;;;2.85;;
27199;SDS011;14714;48.106;11.546;2024-02-16T06:22:27;4.70;;;2.80;;
27199;SDS011;14714;48.106;11.546;2024-02-16T06:24:54;4.68;;;2.92;;
27199;SDS011;14714;48.106;11.546;2024-02-16T06:27:21;5.57;;;2.60;;
27199;SDS011;14714;48.106;11.546;2024-02-16T06:29:48;4.95;;;3.10;;
27199;SDS011;14714;48.106;11.546;2024-02-16T06:32:15;6.07;;;2.75;;
27199;SDS011;14714;48.106;11.546;2024-02-16T06:34:43;4.55;;;2.80;;
27199;SDS011;14714;48.106;11.546;2024-02-16T06:37:12;4.47;;;2.58;;
27199;SDS011;14714;48.106;11.546;2024-02-16T06:39:39;6.05;;;3.60;;
27199;SDS011;14714;48.106;11.546;2024-02-16T06:42:06;3.35;;;2.58;;
27199;SDS011;14714;48.106;11.546;2024-02-16T06:44:33;3.83;;;2.78;;
27199;SDS011;14714;48.106;11.546;2024-02-16T06:47:00;7.97;;;3.20;;
27199;SDS011;14714;48.106;11.546;2024-02-16T06:49:26;5.45;;;3.15;;
27199;SDS011;14714;48.106;11.546;2024-02-16T06:51:53;5.07;;;2.97;;
27199;SDS011;14714;48.106;11.546;2024-02-16T06:54:21;3.97;;;2.85;;
27199;SDS011;14714;48.106;11.546;2024-02-16T06:56:48;8.02;;;3.00;;
27199;SDS011;14714;48.106;11.546;2024-02-16T06:59:17;4.90;;;2.90;;
27199;SDS011;14714;48.106;11.546;2024-02-16T07:01:44;4.55;;;3.03;;
27199;SDS011;14714;48.106;11.546;2024-02-16T07:04:11;5.38;;;3.38;;
27199;SDS011;14714;48.106;11.546;2024-02-16T07:06:38;5.20;;;3.20;;
27199;SDS011;14714;48.106;11.546;2024-02-16T07:09:06;4.78;;;3.03;;
27199;SDS011;14714;48.106;11.546;2024-02-16T07:11:33;5.20;;;2.80;;
27199;SDS011;14714;48.106;11.546;2024-02-16T07:14:01;6.47;;;2.70;;
27199;SDS011;14714;48.106;11.546;2024-02-16T07:16:28;5.25;;;2.78;;
27199;SDS011;14714;48.106;11.546;2024-02-16T07:18:56;5.22;;;2.80;;
27199;SDS011;14714;48.106;11.546;2024-02-16T07:21:23;7.90;;;3.28;;
27199;SDS011;14714;48.106;11.546;2024-02-16T07:23:52;6.82;;;3.00;;
27199;SDS011;14714;48.106;11.546;2024-02-16T07:26:19;4.63;;;2.95;;
27199;SDS011;14714;48.106;11.546;2024-02-16T07:28:46;8.05;;;3.00;;
27199;SDS011;14714;48.106;11.546;2024-02-16T07:31:13;8.70;;;3.05;;
27199;SDS011;14714;48.106;11.546;2024-02-16T07:33:41;8.63;;;2.92;;
27199;SDS011;14714;48.106;11.546;2024-02-16T07:36:08;7.28;;;3.10;;
27199;SDS011;14714;48.106;11.546;2024-02-16T07:38:35;5.57;;;3.35;;
27199;SDS011;14714;48.106;11.546;2024-02-16T07:41:02;5.43;;;3.47;;
27199;SDS011;14714;48.106;11.546;2024-02-16T07:43:34;4.78;;;2.78;;
27199;SDS011;14714;48.106;11.546;2024-02-16T07:46:01;5.95;;;3.22;;
27199;SDS011;14714;48.106;11.546;2024-02-16T07:48:30;7.32;;;3.10;;
27199;SDS011;14714;48.106;11.546;2024-02-16T07:50:57;9.73;;;3.20;;
27199;SDS011;14714;48.106;11.546;2024-02-16T07:53:29;5.72;;;3.65;;
27199;SDS011;14714;48.106;11.546;2024-02-16T07:55:57;6.45;;;3.35;;
27199;SDS011;14714;48.106;11.546;2024-02-16T07:58:24;8.80;;;3.25;;
27199;SDS011;14714;48.106;11.546;2024-02-16T08:00:51;7.80;;;3.38;;
27199;SDS011;14714;48.106;11.546;2024-02-16T08:03:20;9.32;;;3.15;;
27199;SDS011;14714;48.106;11.546;2024-02-16T08:05:47;7.68;;;3.05;;
27199;SDS011;14714;48.106;11.546;2024-02-16T08:08:15;6.78;;;3.00;;
27199;SDS011;14714;48.106;11.546;2024-02-16T08:10:41;9.07;;;3.10;;
27199;SDS011;14714;48.106;11.546;2024-02-16T08:13:08;7.05;;;2.85;;
27199;SDS011;14714;48.106;11.546;2024-02-16T08:15:35;8.95;;;2.90;;
27199;SDS011;14714;48.106;11.546;2024-02-16T08:18:02;4.65;;;2.80;;
27199;SDS011;14714;48.106;11.546;2024-02-16T08:20:29;6.28;;;2.80;;
27199;SDS011;14714;48.106;11.546;2024-02-16T08:22:56;7.32;;;2.85;;
27199;SDS011;14714;48.106;11.546;2024-02-16T08:25:24;4.50;;;2.67;;
27199;SDS011;14714;48.106;11.546;2024-02-16T08:27:51;4.25;;;2.45;;
27199;SDS011;14714;48.106;11.546;2024-02-16T08:30:18;4.00;;;2.50;;
27199;SDS011;14714;48.106;11.546;2024-02-16T08:32:45;6.68;;;2.50;;
27199;SDS011;14714;48.106;11.546;2024-02-16T08:35:12;9.35;;;2.53;;
27199;SDS011;14714;48.106;11.546;2024-02-16T08:37:41;4.35;;;2.80;;
27199;SDS011;14714;48.106;11.546;2024-02-16T08:40:08;4.80;;;2.40;;
27199;SDS011;14714;48.106;11.546;2024-02-16T08:42:43;4.50;;;2.33;;
27199;SDS011;14714;48.106;11.546;2024-02-16T08:45:10;3.60;;;2.38;;
27199;SDS011;14714;48.106;11.546;2024-02-16T08:47:39;5.65;;;2.60;;
27199;SDS011;14714;48.106;11.546;2024-02-16T08:50:07;3.60;;;2.55;;
27199;SDS011;14714;48.106;11.546;2024-02-16T08:52:34;3.70;;;2.33;;
27199;SDS011;14714;48.106;11.546;2024-02-16T08:55:01;6.10;;;2.35;;
27199;SDS011;14714;48.106;11.546;2024-02-16T08:57:29;4.38;;;2.20;;
27199;SDS011;14714;48.106;11.546;2024-02-16T08:59:58;4.35;;;2.30;;
27199;SDS011;14714;48.106;11.546;2024-02-16T09:02:25;3.88;;;2.20;;
27199;SDS011;14714;48.106;11.546;2024-02-16T09:04:51;4.40;;;2.30;;
27199;SDS011;14714;48.106;11.546;2024-02-16T09:07:18;4.78;;;2.55;;
27199;SDS011;14714;48.106;11.546;2024-02-16T09:09:45;7.28;;;2.30;;
27199;SDS011;14714;48.106;11.546;2024-02-16T09:12:13;5.63;;;2.50;;
27199;SDS011;14714;48.106;11.546;2024-02-16T09:14:39;4.25;;;2.30;;
27199;SDS011;14714;48.106;11.546;2024-02-16T09:17:07;4.18;;;2.15;;
27199;SDS011;14714;48.106;11.546;2024-02-16T09:19:33;4.20;;;2.60;;
27199;SDS011;14714;48.106;11.546;2024-02-16T09:22:00;3.75;;;1.88;;
27199;SDS011;14714;48.106;11.546;2024-02-16T09:24:32;5.43;;;2.40;;
27199;SDS011;14714;48.106;11.546;2024-02-16T09:26:59;2.60;;;2.05;;
27199;SDS011;14714;48.106;11.546;2024-02-16T09:29:30;3.40;;;1.83;;
27199;SDS011;14714;48.106;11.546;2024-02-16T09:31:57;3.70;;;1.90;;
27199;SDS011;14714;48.106;11.546;2024-02-16T09:34:24;2.60;;;1.80;;
27199;SDS011;14714;48.106;11.546;2024-02-16T09:36:51;4.97;;;2.05;;
27199;SDS011;14714;48.106;11.546;2024-02-16T09:39:18;3.00;;;1.90;;
27199;SDS011;14714;48.106;11.546;2024-02-16T09:41:45;5.72;;;1.95;;
27199;SDS011;14714;48.106;11.546;2024-02-16T09:44:17;4.45;;;1.80;;
27199;SDS011;14714;48.106;11.546;2024-02-16T09:46:46;3.53;;;1.80;;
27199;SDS011;14714;48.106;11.546;2024-02-16T09:49:15;3.88;;;1.70;;
27199;SDS011;14714;48.106;11.546;2024-02-16T09:51:45;3.65;;;1.88;;
27199;SDS011;14714;48.106;11.546;2024-02-16T09:54:12;3.53;;;1.80;;
27199;SDS011;14714;48.106;11.546;2024-02-16T09:56:39;3.22;;;1.67;;
27199;SDS011;14714;48.106;11.546;2024-02-16T09:59:06;3.63;;;1.92;;
27199;SDS011;14714;48.106;11.546;2024-02-16T10:01:35;3.13;;;1.35;;
27199;SDS011;14714;48.106;11.546;2024-02-16T10:04:05;6.03;;;2.25;;
27199;SDS011;14714;48.106;11.546;2024-02-16T10:06:45;4.45;;;1.77;;
27199;SDS011;14714;48.106;11.546;2024-02-16T10:09:26;2.10;;;1.70;;
27199;SDS011;14714;48.106;11.546;2024-02-16T10:11:59;2.83;;;1.67;;
27199;SDS011;14714;48.106;11.546;2024-02-16T10:14:26;4.60;;;1.63;;
27199;SDS011;14714;48.106;11.546;2024-02-16T10:17:00;3.85;;;1.67;;
27199;SDS011;14714;48.106;11.546;2024-02-16T10:19:32;4.25;;;1.42;;
27199;SDS011;14714;48.106;11.546;2024-02-16T10:22:08;1.55;;;1.30;;
27199;SDS011;14714;48.106;11.546;2024-02-16T10:24:39;3.10;;;1.63;;
27199;SDS011;14714;48.106;11.546;2024-02-16T10:27:16;3.88;;;1.63;;
27199;SDS011;14714;48.106;11.546;2024-02-16T10:29:46;4.30;;;1.70;;
27199;SDS011;14714;48.106;11.546;2024-02-16T10:32:17;3.55;;;1.80;;
27199;SDS011;14714;48.106;11.546;2024-02-16T10:34:45;4.28;;;1.60;;
27199;SDS011;14714;48.106;11.546;2024-02-16T10:37:13;4.78;;;1.60;;
27199;SDS011;14714;48.106;11.546;2024-02-16T10:39:42;9.88;;;1.42;;
27199;SDS011;14714;48.106;11.546;2024-02-16T10:42:10;2.08;;;1.45;;
27199;SDS011;14714;48.106;11.546;2024-02-16T10:44:39;2.13;;;1.50;;
27199;SDS011;14714;48.106;11.546;2024-02-16T10:47:09;4.95;;;1.50;;
27199;SDS011;14714;48.106;11.546;2024-02-16T10:49:36;2.10;;;1.50;;
27199;SDS011;14714;48.106;11.546;2024-02-16T10:52:04;2.10;;;1.75;;
27199;SDS011;14714;48.106;11.546;2024-02-16T10:54:33;3.58;;;1.80;;
27199;SDS011;14714;48.106;11.546;2024-02-16T10:57:00;2.40;;;1.70;;
27199;SDS011;14714;48.106;11.546;2024-02-16T10:59:27;2.70;;;1.60;;
27199;SDS011;14714;48.106;11.546;2024-02-16T11:02:12;3.67;;;1.75;;
27199;SDS011;14714;48.106;11.546;2024-02-16T11:04:39;3.85;;;1.65;;
27199;SDS011;14714;48.106;11.546;2024-02-16T11:07:24;4.38;;;1.60;;
27199;SDS011;14714;48.106;11.546;2024-02-16T11:09:52;4.22;;;1.38;;
27199;SDS011;14714;48.106;11.546;2024-02-16T11:12:18;2.08;;;1.40;;
27199;SDS011;14714;48.106;11.546;2024-02-16T11:14:46;2.17;;;1.40;;
27199;SDS011;14714;48.106;11.546;2024-02-16T11:17:22;3.53;;;1.48;;
27199;SDS011;14714;48.106;11.546;2024-02-16T11:19:50;2.35;;;1.60;;
27199;SDS011;14714;48.106;11.546;2024-02-16T11:22:20;1.63;;;1.30;;
27199;SDS011;14714;48.106;11.546;2024-02-16T11:24:50;1.73;;;1.42;;
27199;SDS011;14714;48.106;11.546;2024-02-16T11:27:24;2.20;;;1.42;;
27199;SDS011;14714;48.106;11.546;2024-02-16T11:29:51;2.55;;;1.50;;
27199;SDS011;14714;48.106;11.546;2024-02-16T11:32:18;2.67;;;1.50;;
27199;SDS011;14714;48.106;11.546;2024-02-16T11:34:46;2.58;;;1.50;;
27199;SDS011;14714;48.106;11.546;2024-02-16T11:37:14;9.80;;;1.80;;
27199;SDS011;14714;48.106;11.546;2024-02-16T11:39:42;1.67;;;1.50;;
27199;SDS011;14714;48.106;11.546;2024-02-16T11:42:12;4.45;;;1.77;;
27199;SDS011;14714;48.106;11.546;2024-02-16T11:44:52;6.60;;;1.40;;
27199;SDS011;14714;48.106;11.546;2024-02-16T11:47:22;7.53;;;1.92;;
27199;SDS011;14714;48.106;11.546;2024-02-16T11:50:06;5.05;;;1.80;;
27199;SDS011;14714;48.106;11.546;2024-02-16T11:52:41;2.75;;;1.60;;
27199;SDS011;14714;48.106;11.546;2024-02-16T11:55:08;3.15;;;1.80;;
27199;SDS011;14714;48.106;11.546;2024-02-16T11:57:36;3.35;;;1.70;;
27199;SDS011;14714;48.106;11.546;2024-02-16T12:00:03;2.67;;;1.60;;
27199;SDS011;14714;48.106;11.546;2024-02-16T12:02:35;3.83;;;1.60;;
27199;SDS011;14714;48.106;11.546;2024-02-16T12:05:03;2.47;;;1.60;;
27199;SDS011;14714;48.106;11.546;2024-02-16T12:07:31;3.60;;;1.60;;
27199;SDS011;14714;48.106;11.546;2024-02-16T12:10:02;4.13;;;1.90;;
27199;SDS011;14714;48.106;11.546;2024-02-16T12:12:32;3.22;;;1.50;;
27199;SDS011;14714;48.106;11.546;2024-02-16T12:15:00;2.10;;;1.70;;
27199;SDS011;14714;48.106;11.546;2024-02-16T12:17:27;2.85;;;1.70;;
27199;SDS011;14714;48.106;11.546;2024-02-16T12:19:54;5.28;;;1.65;;
27199;SDS011;14714;48.106;11.546;2024-02-16T12:22:21;4.35;;;1.70;;
27199;SDS011;14714;48.106;11.546;2024-02-16T12:24:49;2.92;;;1.70;;
27199;SDS011;14714;48.106;11.546;2024-02-16T12:27:17;2.83;;;1.70;;
27199;SDS011;14714;48.106;11.546;2024-02-16T12:29:44;2.72;;;1.40;;
27199;SDS011;14714;48.106;11.546;2024-02-16T12:32:11;2.95;;;1.50;;
27199;SDS011;14714;48.106;11.546;2024-02-16T12:34:38;3.67;;;1.60;;
27199;SDS011;14714;48.106;11.546;2024-02-16T12:37:05;2.90;;;1.70;;
27199;SDS011;14714;48.106;11.546;2024-02-16T12:39:34;4.22;;;1.80;;
27199;SDS011;14714;48.106;11.546;2024-02-16T12:42:01;2.20;;;1.60;;
27199;SDS011;14714;48.106;11.546;2024-02-16T12:44:29;5.65;;;2.03;;
27199;SDS011;14714;48.106;11.546;2024-02-16T12:46:57;2.08;;;1.50;;
27199;SDS011;14714;48.106;11.546;2024-02-16T12:49:29;3.88;;;1.90;;
27199;SDS011;14714;48.106;11.546;2024-02-16T12:51:57;2.50;;;1.50;;
27199;SDS011;14714;48.106;11.546;2024-02-16T12:54:24;3.65;;;1.77;;
27199;SDS011;14714;48.106;11.546;2024-02-16T12:56:51;4.93;;;1.70;;
27199;SDS011;14714;48.106;11.546;2024-02-16T12:59:20;2.88;;;1.60;;
27199;SDS011;14714;48.106;11.546;2024-02-16T13:01:47;3.03;;;1.50;;
27199;SDS011;14714;48.106;11.546;2024-02-16T13:04:14;3.85;;;1.83;;
27199;SDS011;14714;48.106;11.546;2024-02-16T13:06:48;2.78;;;1.50;;
27199;SDS011;14714;48.106;11.546;2024-02-16T13:09:16;3.03;;;1.50;;
27199;SDS011;14714;48.106;11.546;2024-02-16T13:11:43;3.88;;;1.75;;
27199;SDS011;14714;48.106;11.546;2024-02-16T13:14:10;1.77;;;1.40;;
27199;SDS011;14714;48.106;11.546;2024-02-16T13:16:37;2.85;;;1.50;;
27199;SDS011;14714;48.106;11.546;2024-02-16T13:19:04;2.88;;;1.60;;
27199;SDS011;14714;48.106;11.546;2024-02-16T13:21:31;2.20;;;1.30;;
27199;SDS011;14714;48.106;11.546;2024-02-16T13:23:58;4.30;;;1.90;;
27199;SDS011;14714;48.106;11.546;2024-02-16T13:26:25;2.97;;;1.60;;
27199;SDS011;14714;48.106;11.546;2024-02-16T13:28:53;5.15;;;1.60;;
27199;SDS011;14714;48.106;11.546;2024-02-16T13:31:21;3.67;;;1.60;;
27199;SDS011;14714;48.106;11.546;2024-02-16T13:33:48;2.15;;;1.55;;
27199;SDS011;14714;48.106;11.546;2024-02-16T13:36:16;2.95;;;1.58;;
27199;SDS011;14714;48.106;11.546;2024-02-16T13:38:43;3.10;;;1.80;;
27199;SDS011;14714;48.106;11.546;2024-02-16T13:41:09;4.05;;;2.05;;
27199;SDS011;14714;48.106;11.546;2024-02-16T13:43:36;5.38;;;2.00;;
27199;SDS011;14714;48.106;11.546;2024-02-16T13:46:03;5.47;;;2.00;;
27199;SDS011;14714;48.106;11.546;2024-02-16T13:48:30;4.20;;;1.90;;
27199;SDS011;14714;48.106;11.546;2024-02-16T13:50:58;5.60;;;2.17;;
27199;SDS011;14714;48.106;11.546;2024-02-16T13:53:26;3.72;;;1.67;;
27199;SDS011;14714;48.106;11.546;2024-02-16T13:55:53;4.38;;;1.75;;
27199;SDS011;14714;48.106;11.546;2024-02-16T13:58:21;6.20;;;1.77;;
27199;SDS011;14714;48.106;11.546;2024-02-16T14:00:49;3.55;;;1.90;;
27199;SDS011;14714;48.106;11.546;2024-02-16T14:03:17;6.15;;;2.15;;
27199;SDS011;14714;48.106;11.546;2024-02-16T14:05:44;4.07;;;2.10;;
27199;SDS011;14714;48.106;11.546;2024-02-16T14:08:12;3.55;;;1.85;;
27199;SDS011;14714;48.106;11.546;2024-02-16T14:10:41;4.75;;;2.10;;
27199;SDS011;14714;48.106;11.546;2024-02-16T14:13:08;3.42;;;2.08;;
27199;SDS011;14714;48.106;11.546;2024-02-16T14:15:36;4.90;;;1.90;;
27199;SDS011;14714;48.106;11.546;2024-02-16T14:18:03;3.70;;;1.85;;
27199;SDS011;14714;48.106;11.546;2024-02-16T14:20:39;4.10;;;2.10;;
27199;SDS011;14714;48.106;11.546;2024-02-16T14:23:06;7.25;;;2.17;;
27199;SDS011;14714;48.106;11.546;2024-02-16T14:25:35;6.38;;;2.20;;
27199;SDS011;14714;48.106;11.546;2024-02-16T14:28:04;4.15;;;2.08;;
27199;SDS011;14714;48.106;11.546;2024-02-16T14:30:32;4.82;;;2.10;;
27199;SDS011;14714;48.106;11.546;2024-02-16T14:33:00;2.85;;;1.60;;
27199;SDS011;14714;48.106;11.546;2024-02-16T14:35:27;5.07;;;1.98;;
27199;SDS011;14714;48.106;11.546;2024-02-16T14:37:54;3.45;;;2.10;;
27199;SDS011;14714;48.106;11.546;2024-02-16T14:40:20;5.53;;;2.08;;
27199;SDS011;14714;48.106;11.546;2024-02-16T14:42:47;4.72;;;2.15;;
27199;SDS011;14714;48.106;11.546;2024-02-16T14:45:14;3.95;;;2.17;;